sensor_id;sensor_type;location;lat;lon;timestamp;temperature;humidity
9375;DHT22;4727;51.202;6.344;2023-08-20T00:02:11;20.60;99.90
9375;DHT22;4727;51.202;6.344;2023-08-20T00:04:37;20.60;99.90
9375;DHT22;4727;51.202;6.344;2023-08-20T00:26:58;20.40;99.90
9375;DHT22;4727;51.202;6.344;2023-08-20T00:53:44;20.40;99.90
9375;DHT22;4727;51.202;6.344;2023-08-20T01:06:07;20.30;99.90
9375;DHT22;4727;51.202;6.344;2023-08-20T01:08:40;20.30;99.90
9375;DHT22;4727;51.202;6.344;2023-08-20T01:11:12;20.30;99.90
9375;DHT22;4727;51.202;6.344;2023-08-20T01:21:03;20.20;99.90
9375;DHT22;4727;51.202;6.344;2023-08-20T01:28:30;19.90;99.90
9375;DHT22;4727;51.202;6.344;2023-08-20T01:30:58;19.90;99.90
9375;DHT22;4727;51.202;6.344;2023-08-20T01:35:53;19.90;99.90
9375;DHT22;4727;51.202;6.344;2023-08-20T01:38:19;19.80;99.90
9375;DHT22;4727;51.202;6.344;2023-08-20T01:50:29;19.70;99.90
9375;DHT22;4727;51.202;6.344;2023-08-20T01:52:55;20.50;99.90
9375;DHT22;4727;51.202;6.344;2023-08-20T01:55:21;19.80;99.90
9375;DHT22;4727;51.202;6.344;2023-08-20T02:00:13;19.90;99.90
9375;DHT22;4727;51.202;6.344;2023-08-20T02:17:16;19.70;99.90
9375;DHT22;4727;51.202;6.344;2023-08-20T02:19:41;19.60;99.90
9375;DHT22;4727;51.202;6.344;2023-08-20T02:24:33;19.70;99.90
9375;DHT22;4727;51.202;6.344;2023-08-20T02:44:02;19.60;99.90
9375;DHT22;4727;51.202;6.344;2023-08-20T03:01:03;19.40;99.90
9375;DHT22;4727;51.202;6.344;2023-08-20T03:05:55;19.40;99.90
9375;DHT22;4727;51.202;6.344;2023-08-20T03:08:21;19.40;99.90
9375;DHT22;4727;51.202;6.344;2023-08-20T03:18:05;19.30;99.90
9375;DHT22;4727;51.202;6.344;2023-08-20T03:27:51;19.40;99.90
9375;DHT22;4727;51.202;6.344;2023-08-20T03:35:09;19.40;99.90
9375;DHT22;4727;51.202;6.344;2023-08-20T03:37:35;19.40;99.90
9375;DHT22;4727;51.202;6.344;2023-08-20T03:40:00;19.60;99.90
9375;DHT22;4727;51.202;6.344;2023-08-20T03:42:26;20.00;99.90
9375;DHT22;4727;51.202;6.344;2023-08-20T03:44:51;19.40;99.90
9375;DHT22;4727;51.202;6.344;2023-08-20T03:47:17;19.50;99.90
9375;DHT22;4727;51.202;6.344;2023-08-20T03:49:46;19.60;99.90
9375;DHT22;4727;51.202;6.344;2023-08-20T03:52:12;19.60;99.90
9375;DHT22;4727;51.202;6.344;2023-08-20T03:57:04;19.60;99.90
9375;DHT22;4727;51.202;6.344;2023-08-20T04:01:56;19.50;99.90
9375;DHT22;4727;51.202;6.344;2023-08-20T04:06:48;19.50;99.90
9375;DHT22;4727;51.202;6.344;2023-08-20T04:14:05;19.50;99.90
9375;DHT22;4727;51.202;6.344;2023-08-20T04:31:07;19.30;99.90
9375;DHT22;4727;51.202;6.344;2023-08-20T04:38:24;19.20;99.90
9375;DHT22;4727;51.202;6.344;2023-08-20T04:45:42;19.20;99.90
9375;DHT22;4727;51.202;6.344;2023-08-20T04:48:08;19.50;99.90
9375;DHT22;4727;51.202;6.344;2023-08-20T04:53:00;19.00;99.90
9375;DHT22;4727;51.202;6.344;2023-08-20T04:55:29;19.00;99.90
9375;DHT22;4727;51.202;6.344;2023-08-20T04:57:55;18.90;99.90
9375;DHT22;4727;51.202;6.344;2023-08-20T05:00:21;18.90;99.90
9375;DHT22;4727;51.202;6.344;2023-08-20T05:05:13;18.90;99.90
9375;DHT22;4727;51.202;6.344;2023-08-20T05:07:38;18.80;99.90
9375;DHT22;4727;51.202;6.344;2023-08-20T05:10:05;18.70;99.90
9375;DHT22;4727;51.202;6.344;2023-08-20T05:14:56;18.80;99.90
9375;DHT22;4727;51.202;6.344;2023-08-20T05:19:48;18.90;99.90
9375;DHT22;4727;51.202;6.344;2023-08-20T05:22:13;19.60;99.90
9375;DHT22;4727;51.202;6.344;2023-08-20T05:27:11;18.80;99.90
9375;DHT22;4727;51.202;6.344;2023-08-20T05:32:04;17.80;99.90
9375;DHT22;4727;51.202;6.344;2023-08-20T05:36:55;18.90;99.90
9375;DHT22;4727;51.202;6.344;2023-08-20T05:39:21;19.00;99.90
9375;DHT22;4727;51.202;6.344;2023-08-20T05:41:48;18.90;99.90
9375;DHT22;4727;51.202;6.344;2023-08-20T05:53:58;19.00;99.90
9375;DHT22;4727;51.202;6.344;2023-08-20T06:06:08;19.10;99.90
9375;DHT22;4727;51.202;6.344;2023-08-20T06:15:52;19.30;99.90
9375;DHT22;4727;51.202;6.344;2023-08-20T06:18:17;19.40;99.90
9375;DHT22;4727;51.202;6.344;2023-08-20T06:44:11;20.10;99.90
9375;DHT22;4727;51.202;6.344;2023-08-20T06:49:03;20.20;99.90
9375;DHT22;4727;51.202;6.344;2023-08-20T06:51:28;20.40;99.90
9375;DHT22;4727;51.202;6.344;2023-08-20T06:53:54;20.40;99.90
9375;DHT22;4727;51.202;6.344;2023-08-20T06:56:20;20.50;99.90
9375;DHT22;4727;51.202;6.344;2023-08-20T07:03:40;20.80;99.90
9375;DHT22;4727;51.202;6.344;2023-08-20T07:08:32;20.80;99.90
9375;DHT22;4727;51.202;6.344;2023-08-20T07:10:58;21.00;99.90
9375;DHT22;4727;51.202;6.344;2023-08-20T07:13:24;20.90;99.90
9375;DHT22;4727;51.202;6.344;2023-08-20T07:18:15;21.00;99.90
9375;DHT22;4727;51.202;6.344;2023-08-20T07:20:42;21.10;99.90
9375;DHT22;4727;51.202;6.344;2023-08-20T07:23:08;21.10;99.90
9375;DHT22;4727;51.202;6.344;2023-08-20T07:25:37;21.90;99.90
9375;DHT22;4727;51.202;6.344;2023-08-20T07:28:04;21.20;99.90
9375;DHT22;4727;51.202;6.344;2023-08-20T07:32:56;21.40;99.90
9375;DHT22;4727;51.202;6.344;2023-08-20T07:35:21;21.60;99.90
9375;DHT22;4727;51.202;6.344;2023-08-20T07:37:47;21.40;99.90
9375;DHT22;4727;51.202;6.344;2023-08-20T07:42:40;21.60;99.90
9375;DHT22;4727;51.202;6.344;2023-08-20T07:45:07;21.70;99.90
9375;DHT22;4727;51.202;6.344;2023-08-20T07:47:33;21.70;99.90
9375;DHT22;4727;51.202;6.344;2023-08-20T07:49:59;21.80;99.90
9375;DHT22;4727;51.202;6.344;2023-08-20T07:52:25;21.90;99.90
9375;DHT22;4727;51.202;6.344;2023-08-20T07:54:51;22.20;99.90
9375;DHT22;4727;51.202;6.344;2023-08-20T07:57:16;22.10;99.90
9375;DHT22;4727;51.202;6.344;2023-08-20T08:02:08;22.20;99.90
9375;DHT22;4727;51.202;6.344;2023-08-20T08:04:34;23.60;99.90
9375;DHT22;4727;51.202;6.344;2023-08-20T08:06:59;22.40;99.90
9375;DHT22;4727;51.202;6.344;2023-08-20T08:09:30;22.50;99.90
9375;DHT22;4727;51.202;6.344;2023-08-20T08:11:55;22.50;99.90
9375;DHT22;4727;51.202;6.344;2023-08-20T08:14:21;22.60;99.90
9375;DHT22;4727;51.202;6.344;2023-08-20T08:16:47;22.70;99.90
9375;DHT22;4727;51.202;6.344;2023-08-20T08:19:13;22.70;99.90
9375;DHT22;4727;51.202;6.344;2023-08-20T08:21:39;22.80;99.90
9375;DHT22;4727;51.202;6.344;2023-08-20T08:24:04;22.80;99.90
9375;DHT22;4727;51.202;6.344;2023-08-20T08:26:31;22.80;99.90
9375;DHT22;4727;51.202;6.344;2023-08-20T08:28:57;22.90;99.90
9375;DHT22;4727;51.202;6.344;2023-08-20T08:31:23;22.90;99.90
9375;DHT22;4727;51.202;6.344;2023-08-20T08:36:15;23.00;99.90
9375;DHT22;4727;51.202;6.344;2023-08-20T08:38:42;23.00;99.90
9375;DHT22;4727;51.202;6.344;2023-08-20T08:41:11;23.10;99.90
9375;DHT22;4727;51.202;6.344;2023-08-20T08:43:38;23.20;99.90
9375;DHT22;4727;51.202;6.344;2023-08-20T08:46:11;23.30;99.90
9375;DHT22;4727;51.202;6.344;2023-08-20T08:48:40;23.20;99.90
9375;DHT22;4727;51.202;6.344;2023-08-20T08:51:06;23.30;99.90
9375;DHT22;4727;51.202;6.344;2023-08-20T08:53:32;23.50;99.90
9375;DHT22;4727;51.202;6.344;2023-08-20T08:55:58;23.40;99.90
9375;DHT22;4727;51.202;6.344;2023-08-20T08:58:24;23.50;99.90
9375;DHT22;4727;51.202;6.344;2023-08-20T09:00:50;23.60;99.90
9375;DHT22;4727;51.202;6.344;2023-08-20T09:03:16;23.70;99.90
9375;DHT22;4727;51.202;6.344;2023-08-20T09:05:48;23.80;99.90
9375;DHT22;4727;51.202;6.344;2023-08-20T09:08:21;24.00;99.90
9375;DHT22;4727;51.202;6.344;2023-08-20T09:10:49;23.90;99.90
9375;DHT22;4727;51.202;6.344;2023-08-20T09:13:16;24.10;99.90
9375;DHT22;4727;51.202;6.344;2023-08-20T09:15:41;24.10;99.90
9375;DHT22;4727;51.202;6.344;2023-08-20T09:18:09;24.10;99.90
9375;DHT22;4727;51.202;6.344;2023-08-20T09:20:38;24.20;99.90
9375;DHT22;4727;51.202;6.344;2023-08-20T09:23:10;24.30;99.90
9375;DHT22;4727;51.202;6.344;2023-08-20T09:28:05;24.30;99.90
9375;DHT22;4727;51.202;6.344;2023-08-20T09:30:31;24.40;99.90
9375;DHT22;4727;51.202;6.344;2023-08-20T09:33:10;24.50;99.90
9375;DHT22;4727;51.202;6.344;2023-08-20T09:35:36;24.60;99.90
9375;DHT22;4727;51.202;6.344;2023-08-20T09:38:03;24.60;99.90
9375;DHT22;4727;51.202;6.344;2023-08-20T09:40:29;24.60;99.90
9375;DHT22;4727;51.202;6.344;2023-08-20T09:42:56;24.60;99.90
9375;DHT22;4727;51.202;6.344;2023-08-20T09:45:28;24.60;99.90
9375;DHT22;4727;51.202;6.344;2023-08-20T09:47:55;24.60;99.90
9375;DHT22;4727;51.202;6.344;2023-08-20T09:50:23;24.70;99.90
9375;DHT22;4727;51.202;6.344;2023-08-20T09:53:01;24.80;99.90
9375;DHT22;4727;51.202;6.344;2023-08-20T09:55:33;24.80;99.90
9375;DHT22;4727;51.202;6.344;2023-08-20T09:58:02;24.80;99.90
9375;DHT22;4727;51.202;6.344;2023-08-20T10:00:28;25.00;99.90
9375;DHT22;4727;51.202;6.344;2023-08-20T10:02:54;25.10;99.90
9375;DHT22;4727;51.202;6.344;2023-08-20T10:05:20;25.00;99.90
9375;DHT22;4727;51.202;6.344;2023-08-20T10:07:47;25.00;99.90
9375;DHT22;4727;51.202;6.344;2023-08-20T10:10:14;25.10;99.90
9375;DHT22;4727;51.202;6.344;2023-08-20T10:12:40;25.20;99.90
9375;DHT22;4727;51.202;6.344;2023-08-20T10:15:08;25.30;99.90
9375;DHT22;4727;51.202;6.344;2023-08-20T10:17:36;25.30;99.90
9375;DHT22;4727;51.202;6.344;2023-08-20T10:20:03;25.30;99.90
9375;DHT22;4727;51.202;6.344;2023-08-20T10:22:40;25.30;99.90
9375;DHT22;4727;51.202;6.344;2023-08-20T10:25:10;25.20;99.90
9375;DHT22;4727;51.202;6.344;2023-08-20T10:27:40;25.10;99.90
9375;DHT22;4727;51.202;6.344;2023-08-20T10:30:09;25.20;99.90
9375;DHT22;4727;51.202;6.344;2023-08-20T10:32:54;25.20;99.90
9375;DHT22;4727;51.202;6.344;2023-08-20T10:35:46;25.50;99.90
9375;DHT22;4727;51.202;6.344;2023-08-20T10:38:16;25.60;99.90
9375;DHT22;4727;51.202;6.344;2023-08-20T10:46:20;25.70;99.90
9375;DHT22;4727;51.202;6.344;2023-08-20T10:48:51;25.70;99.90
9375;DHT22;4727;51.202;6.344;2023-08-20T10:51:17;25.70;99.90
9375;DHT22;4727;51.202;6.344;2023-08-20T10:53:48;25.70;99.90
9375;DHT22;4727;51.202;6.344;2023-08-20T10:59:09;25.60;99.90
9375;DHT22;4727;51.202;6.344;2023-08-20T11:01:34;25.60;99.90
9375;DHT22;4727;51.202;6.344;2023-08-20T11:04:00;25.60;99.90
9375;DHT22;4727;51.202;6.344;2023-08-20T11:06:31;25.50;99.90
9375;DHT22;4727;51.202;6.344;2023-08-20T11:09:01;25.50;99.90
9375;DHT22;4727;51.202;6.344;2023-08-20T11:11:29;25.50;99.90
9375;DHT22;4727;51.202;6.344;2023-08-20T11:13:55;25.70;99.90
9375;DHT22;4727;51.202;6.344;2023-08-20T11:16:20;25.70;99.90
9375;DHT22;4727;51.202;6.344;2023-08-20T11:18:46;25.90;99.90
9375;DHT22;4727;51.202;6.344;2023-08-20T11:21:12;26.00;99.90
9375;DHT22;4727;51.202;6.344;2023-08-20T11:23:39;26.20;99.90
9375;DHT22;4727;51.202;6.344;2023-08-20T11:26:07;26.10;99.90
9375;DHT22;4727;51.202;6.344;2023-08-20T11:28:33;26.10;99.90
9375;DHT22;4727;51.202;6.344;2023-08-20T11:31:01;26.10;99.90
9375;DHT22;4727;51.202;6.344;2023-08-20T11:33:27;26.20;99.90
9375;DHT22;4727;51.202;6.344;2023-08-20T11:35:53;26.10;99.90
9375;DHT22;4727;51.202;6.344;2023-08-20T11:38:23;26.10;99.90
9375;DHT22;4727;51.202;6.344;2023-08-20T11:40:49;26.00;99.90
9375;DHT22;4727;51.202;6.344;2023-08-20T11:45:48;25.80;99.90
9375;DHT22;4727;51.202;6.344;2023-08-20T11:48:15;25.90;99.90
9375;DHT22;4727;51.202;6.344;2023-08-20T11:50:41;26.20;99.90
9375;DHT22;4727;51.202;6.344;2023-08-20T11:53:08;26.00;99.90
9375;DHT22;4727;51.202;6.344;2023-08-20T11:55:34;26.30;99.90
9375;DHT22;4727;51.202;6.344;2023-08-20T11:57:59;26.40;99.90
9375;DHT22;4727;51.202;6.344;2023-08-20T12:00:26;26.40;99.90
9375;DHT22;4727;51.202;6.344;2023-08-20T12:02:53;26.30;99.90
9375;DHT22;4727;51.202;6.344;2023-08-20T12:05:20;26.30;99.90
9375;DHT22;4727;51.202;6.344;2023-08-20T12:07:58;26.40;99.90
9375;DHT22;4727;51.202;6.344;2023-08-20T12:10:25;26.40;99.90
9375;DHT22;4727;51.202;6.344;2023-08-20T12:12:52;26.90;99.90
9375;DHT22;4727;51.202;6.344;2023-08-20T12:15:18;26.60;99.90
9375;DHT22;4727;51.202;6.344;2023-08-20T12:17:58;26.70;99.90
9375;DHT22;4727;51.202;6.344;2023-08-20T12:20:27;26.90;99.90
9375;DHT22;4727;51.202;6.344;2023-08-20T12:22:53;26.80;99.90
9375;DHT22;4727;51.202;6.344;2023-08-20T12:25:19;26.80;99.90
9375;DHT22;4727;51.202;6.344;2023-08-20T12:27:44;27.00;99.90
9375;DHT22;4727;51.202;6.344;2023-08-20T12:30:10;27.00;99.90
9375;DHT22;4727;51.202;6.344;2023-08-20T12:32:36;26.70;99.90
9375;DHT22;4727;51.202;6.344;2023-08-20T12:35:02;26.80;99.90
9375;DHT22;4727;51.202;6.344;2023-08-20T12:37:28;26.80;99.90
9375;DHT22;4727;51.202;6.344;2023-08-20T12:39:54;26.90;99.90
9375;DHT22;4727;51.202;6.344;2023-08-20T12:44:45;27.00;99.90
9375;DHT22;4727;51.202;6.344;2023-08-20T12:47:11;27.00;99.90
9375;DHT22;4727;51.202;6.344;2023-08-20T12:49:36;27.30;99.90
9375;DHT22;4727;51.202;6.344;2023-08-20T12:54:28;27.80;99.90
9375;DHT22;4727;51.202;6.344;2023-08-20T12:56:54;28.10;99.90
9375;DHT22;4727;51.202;6.344;2023-08-20T12:59:20;28.10;99.90
9375;DHT22;4727;51.202;6.344;2023-08-20T13:01:45;28.30;99.90
9375;DHT22;4727;51.202;6.344;2023-08-20T13:04:12;28.50;99.90
9375;DHT22;4727;51.202;6.344;2023-08-20T13:06:38;28.50;99.90
9375;DHT22;4727;51.202;6.344;2023-08-20T13:09:05;28.70;99.90
9375;DHT22;4727;51.202;6.344;2023-08-20T13:11:32;29.00;99.90
9375;DHT22;4727;51.202;6.344;2023-08-20T13:13:58;29.20;99.90
9375;DHT22;4727;51.202;6.344;2023-08-20T13:16:24;29.50;99.90
9375;DHT22;4727;51.202;6.344;2023-08-20T13:18:49;29.60;99.90
9375;DHT22;4727;51.202;6.344;2023-08-20T13:21:15;29.70;99.90
9375;DHT22;4727;51.202;6.344;2023-08-20T13:26:07;29.60;99.90
9375;DHT22;4727;51.202;6.344;2023-08-20T13:30:58;29.60;99.90
9375;DHT22;4727;51.202;6.344;2023-08-20T13:33:24;29.00;99.90
9375;DHT22;4727;51.202;6.344;2023-08-20T13:35:49;29.10;99.90
9375;DHT22;4727;51.202;6.344;2023-08-20T13:38:15;29.10;99.90
9375;DHT22;4727;51.202;6.344;2023-08-20T13:40:40;29.20;99.90
9375;DHT22;4727;51.202;6.344;2023-08-20T13:43:06;29.70;99.90
9375;DHT22;4727;51.202;6.344;2023-08-20T13:47:58;29.70;99.90
9375;DHT22;4727;51.202;6.344;2023-08-20T13:50:23;29.80;99.90
9375;DHT22;4727;51.202;6.344;2023-08-20T13:52:49;29.80;99.90
9375;DHT22;4727;51.202;6.344;2023-08-20T13:55:15;30.10;99.90
9375;DHT22;4727;51.202;6.344;2023-08-20T13:57:40;30.10;99.90
9375;DHT22;4727;51.202;6.344;2023-08-20T14:00:06;30.00;99.90
9375;DHT22;4727;51.202;6.344;2023-08-20T14:02:35;29.30;99.90
9375;DHT22;4727;51.202;6.344;2023-08-20T14:05:00;29.60;99.90
9375;DHT22;4727;51.202;6.344;2023-08-20T14:07:26;30.00;99.90
9375;DHT22;4727;51.202;6.344;2023-08-20T14:09:52;30.10;99.90
9375;DHT22;4727;51.202;6.344;2023-08-20T14:12:17;30.40;99.90
9375;DHT22;4727;51.202;6.344;2023-08-20T14:14:43;30.80;99.90
9375;DHT22;4727;51.202;6.344;2023-08-20T14:17:08;30.80;99.90
9375;DHT22;4727;51.202;6.344;2023-08-20T14:22:00;30.80;99.90
9375;DHT22;4727;51.202;6.344;2023-08-20T14:24:26;31.10;99.90
9375;DHT22;4727;51.202;6.344;2023-08-20T14:26:51;31.50;99.90
9375;DHT22;4727;51.202;6.344;2023-08-20T14:31:43;32.30;99.90
9375;DHT22;4727;51.202;6.344;2023-08-20T14:34:09;32.30;99.90
9375;DHT22;4727;51.202;6.344;2023-08-20T14:36:34;32.40;99.90
9375;DHT22;4727;51.202;6.344;2023-08-20T14:39:00;32.60;99.90
9375;DHT22;4727;51.202;6.344;2023-08-20T14:41:25;32.70;99.90
9375;DHT22;4727;51.202;6.344;2023-08-20T14:43:51;32.90;99.90
9375;DHT22;4727;51.202;6.344;2023-08-20T14:46:16;32.90;99.90
9375;DHT22;4727;51.202;6.344;2023-08-20T14:48:42;33.00;99.90
9375;DHT22;4727;51.202;6.344;2023-08-20T14:51:08;33.00;99.90
9375;DHT22;4727;51.202;6.344;2023-08-20T14:56:00;32.60;99.90
9375;DHT22;4727;51.202;6.344;2023-08-20T15:05:45;32.00;99.90
9375;DHT22;4727;51.202;6.344;2023-08-20T15:08:10;32.00;99.90
9375;DHT22;4727;51.202;6.344;2023-08-20T15:10:36;32.00;99.90
9375;DHT22;4727;51.202;6.344;2023-08-20T15:13:01;32.20;99.90
9375;DHT22;4727;51.202;6.344;2023-08-20T15:15:27;32.50;99.90
9375;DHT22;4727;51.202;6.344;2023-08-20T15:17:54;32.40;99.90
9375;DHT22;4727;51.202;6.344;2023-08-20T15:20:20;32.40;99.90
9375;DHT22;4727;51.202;6.344;2023-08-20T15:22:45;32.40;99.90
9375;DHT22;4727;51.202;6.344;2023-08-20T15:25:11;32.50;99.90
9375;DHT22;4727;51.202;6.344;2023-08-20T15:30:04;32.50;99.90
9375;DHT22;4727;51.202;6.344;2023-08-20T15:32:30;32.50;99.90
9375;DHT22;4727;51.202;6.344;2023-08-20T15:34:56;32.70;99.90
9375;DHT22;4727;51.202;6.344;2023-08-20T15:39:48;32.70;99.90
9375;DHT22;4727;51.202;6.344;2023-08-20T15:42:13;32.30;99.90
9375;DHT22;4727;51.202;6.344;2023-08-20T15:44:39;31.60;99.90
9375;DHT22;4727;51.202;6.344;2023-08-20T15:47:06;31.70;99.90
9375;DHT22;4727;51.202;6.344;2023-08-20T15:49:32;31.80;99.90
9375;DHT22;4727;51.202;6.344;2023-08-20T15:56:51;32.00;99.90
9375;DHT22;4727;51.202;6.344;2023-08-20T15:59:17;31.70;99.90
9375;DHT22;4727;51.202;6.344;2023-08-20T16:01:43;31.50;99.90
9375;DHT22;4727;51.202;6.344;2023-08-20T16:04:08;31.50;99.90
9375;DHT22;4727;51.202;6.344;2023-08-20T16:06:34;31.70;99.90
9375;DHT22;4727;51.202;6.344;2023-08-20T16:13:52;31.60;99.90
9375;DHT22;4727;51.202;6.344;2023-08-20T16:16:17;31.80;99.90
9375;DHT22;4727;51.202;6.344;2023-08-20T16:21:10;31.30;99.90
9375;DHT22;4727;51.202;6.344;2023-08-20T16:23:36;31.30;99.90
9375;DHT22;4727;51.202;6.344;2023-08-20T16:26:01;31.00;99.90
9375;DHT22;4727;51.202;6.344;2023-08-20T16:28:29;30.80;99.90
9375;DHT22;4727;51.202;6.344;2023-08-20T16:33:20;30.30;99.90
9375;DHT22;4727;51.202;6.344;2023-08-20T16:35:48;31.10;99.90
9375;DHT22;4727;51.202;6.344;2023-08-20T16:38:14;30.80;99.90
9375;DHT22;4727;51.202;6.344;2023-08-20T16:40:40;30.90;99.90
9375;DHT22;4727;51.202;6.344;2023-08-20T16:43:05;30.80;99.90
9375;DHT22;4727;51.202;6.344;2023-08-20T16:47:57;31.00;99.90
9375;DHT22;4727;51.202;6.344;2023-08-20T16:50:23;30.90;99.90
9375;DHT22;4727;51.202;6.344;2023-08-20T16:52:49;30.90;99.90
9375;DHT22;4727;51.202;6.344;2023-08-20T16:55:15;30.50;99.90
9375;DHT22;4727;51.202;6.344;2023-08-20T16:57:41;30.50;99.90
9375;DHT22;4727;51.202;6.344;2023-08-20T17:00:07;30.20;99.90
9375;DHT22;4727;51.202;6.344;2023-08-20T17:02:33;30.00;99.90
9375;DHT22;4727;51.202;6.344;2023-08-20T17:05:00;30.00;99.90
9375;DHT22;4727;51.202;6.344;2023-08-20T17:07:26;29.80;99.90
9375;DHT22;4727;51.202;6.344;2023-08-20T17:09:52;29.90;99.90
9375;DHT22;4727;51.202;6.344;2023-08-20T17:12:17;30.00;99.90
9375;DHT22;4727;51.202;6.344;2023-08-20T17:14:43;30.00;99.90
9375;DHT22;4727;51.202;6.344;2023-08-20T17:17:09;30.10;99.90
9375;DHT22;4727;51.202;6.344;2023-08-20T17:19:34;30.10;99.90
9375;DHT22;4727;51.202;6.344;2023-08-20T17:22:00;30.00;99.90
9375;DHT22;4727;51.202;6.344;2023-08-20T17:24:26;30.00;99.90
9375;DHT22;4727;51.202;6.344;2023-08-20T17:26:52;29.80;99.90
9375;DHT22;4727;51.202;6.344;2023-08-20T17:29:18;29.80;99.90
9375;DHT22;4727;51.202;6.344;2023-08-20T17:31:43;29.50;99.90
9375;DHT22;4727;51.202;6.344;2023-08-20T17:36:36;29.30;99.90
9375;DHT22;4727;51.202;6.344;2023-08-20T17:39:02;29.20;99.90
9375;DHT22;4727;51.202;6.344;2023-08-20T17:43:54;28.90;99.90
9375;DHT22;4727;51.202;6.344;2023-08-20T17:48:45;28.70;99.90
9375;DHT22;4727;51.202;6.344;2023-08-20T17:51:11;28.50;99.90
9375;DHT22;4727;51.202;6.344;2023-08-20T17:53:36;28.50;99.90
9375;DHT22;4727;51.202;6.344;2023-08-20T17:56:04;28.30;99.90
9375;DHT22;4727;51.202;6.344;2023-08-20T17:58:30;28.20;99.90
9375;DHT22;4727;51.202;6.344;2023-08-20T18:00:56;28.20;99.90
9375;DHT22;4727;51.202;6.344;2023-08-20T18:05:48;28.10;99.90
9375;DHT22;4727;51.202;6.344;2023-08-20T18:08:16;28.10;99.90
9375;DHT22;4727;51.202;6.344;2023-08-20T18:10:42;28.00;99.90
9375;DHT22;4727;51.202;6.344;2023-08-20T18:13:07;28.00;99.90
9375;DHT22;4727;51.202;6.344;2023-08-20T18:15:33;27.90;99.90
9375;DHT22;4727;51.202;6.344;2023-08-20T18:17:59;27.90;99.90
9375;DHT22;4727;51.202;6.344;2023-08-20T18:20:25;27.80;99.90
9375;DHT22;4727;51.202;6.344;2023-08-20T18:22:51;27.60;99.90
9375;DHT22;4727;51.202;6.344;2023-08-20T18:30:09;27.50;99.90
9375;DHT22;4727;51.202;6.344;2023-08-20T18:32:37;27.50;99.90
9375;DHT22;4727;51.202;6.344;2023-08-20T18:37:29;27.30;99.90
9375;DHT22;4727;51.202;6.344;2023-08-20T18:42:21;27.10;99.90
9375;DHT22;4727;51.202;6.344;2023-08-20T18:44:47;27.10;99.90
9375;DHT22;4727;51.202;6.344;2023-08-20T18:47:12;27.10;99.90
9375;DHT22;4727;51.202;6.344;2023-08-20T18:49:38;26.90;99.90
9375;DHT22;4727;51.202;6.344;2023-08-20T18:52:04;26.80;99.90
9375;DHT22;4727;51.202;6.344;2023-08-20T18:54:31;26.90;99.90
9375;DHT22;4727;51.202;6.344;2023-08-20T18:56:56;26.70;99.90
9375;DHT22;4727;51.202;6.344;2023-08-20T19:01:49;26.70;99.90
9375;DHT22;4727;51.202;6.344;2023-08-20T19:04:15;26.50;99.90
9375;DHT22;4727;51.202;6.344;2023-08-20T19:09:06;26.40;99.90
9375;DHT22;4727;51.202;6.344;2023-08-20T19:11:33;26.30;99.90
9375;DHT22;4727;51.202;6.344;2023-08-20T19:18:50;26.10;99.90
9375;DHT22;4727;51.202;6.344;2023-08-20T19:21:17;26.00;99.90
9375;DHT22;4727;51.202;6.344;2023-08-20T19:26:10;26.00;99.90
9375;DHT22;4727;51.202;6.344;2023-08-20T19:31:02;25.80;99.90
9375;DHT22;4727;51.202;6.344;2023-08-20T19:33:28;25.70;99.90
9375;DHT22;4727;51.202;6.344;2023-08-20T19:35:58;25.60;99.90
9375;DHT22;4727;51.202;6.344;2023-08-20T19:38:24;25.50;99.90
9375;DHT22;4727;51.202;6.344;2023-08-20T19:40:50;25.40;99.90
9375;DHT22;4727;51.202;6.344;2023-08-20T19:50:35;25.40;99.90
9375;DHT22;4727;51.202;6.344;2023-08-20T19:55:26;25.30;99.90
9375;DHT22;4727;51.202;6.344;2023-08-20T20:02:46;25.10;99.90
9375;DHT22;4727;51.202;6.344;2023-08-20T20:05:12;25.10;99.90
9375;DHT22;4727;51.202;6.344;2023-08-20T20:07:42;25.00;99.90
9375;DHT22;4727;51.202;6.344;2023-08-20T20:10:09;24.90;99.90
9375;DHT22;4727;51.202;6.344;2023-08-20T20:12:36;24.80;99.90
9375;DHT22;4727;51.202;6.344;2023-08-20T20:15:02;24.80;99.90
9375;DHT22;4727;51.202;6.344;2023-08-20T20:17:28;24.60;99.90
9375;DHT22;4727;51.202;6.344;2023-08-20T20:19:55;24.60;99.90
9375;DHT22;4727;51.202;6.344;2023-08-20T20:22:21;24.50;99.90
9375;DHT22;4727;51.202;6.344;2023-08-20T20:24:50;24.40;99.90
9375;DHT22;4727;51.202;6.344;2023-08-20T20:29:41;24.40;99.90
9375;DHT22;4727;51.202;6.344;2023-08-20T20:32:07;24.40;99.90
9375;DHT22;4727;51.202;6.344;2023-08-20T20:34:32;24.20;99.90
9375;DHT22;4727;51.202;6.344;2023-08-20T20:36:58;24.10;99.90
9375;DHT22;4727;51.202;6.344;2023-08-20T20:39:24;24.10;99.90
9375;DHT22;4727;51.202;6.344;2023-08-20T20:41:52;24.10;99.90
9375;DHT22;4727;51.202;6.344;2023-08-20T20:51:36;24.10;99.90
9375;DHT22;4727;51.202;6.344;2023-08-20T20:54:01;24.00;99.90
9375;DHT22;4727;51.202;6.344;2023-08-20T20:58:54;23.90;99.90
9375;DHT22;4727;51.202;6.344;2023-08-20T21:03:46;23.80;99.90
9375;DHT22;4727;51.202;6.344;2023-08-20T21:06:12;23.70;99.90
9375;DHT22;4727;51.202;6.344;2023-08-20T21:08:38;23.70;99.90
9375;DHT22;4727;51.202;6.344;2023-08-20T21:11:04;23.60;99.90
9375;DHT22;4727;51.202;6.344;2023-08-20T21:15:55;23.50;99.90
9375;DHT22;4727;51.202;6.344;2023-08-20T21:18:21;23.50;99.90
9375;DHT22;4727;51.202;6.344;2023-08-20T21:20:46;23.30;99.90
9375;DHT22;4727;51.202;6.344;2023-08-20T21:30:30;23.10;99.90
9375;DHT22;4727;51.202;6.344;2023-08-20T21:32:55;23.10;99.90
9375;DHT22;4727;51.202;6.344;2023-08-20T21:35:21;23.00;99.90
9375;DHT22;4727;51.202;6.344;2023-08-20T21:40:13;22.90;99.90
9375;DHT22;4727;51.202;6.344;2023-08-20T21:42:38;22.90;99.90
9375;DHT22;4727;51.202;6.344;2023-08-20T21:45:04;22.90;99.90
9375;DHT22;4727;51.202;6.344;2023-08-20T21:47:30;22.80;99.90
9375;DHT22;4727;51.202;6.344;2023-08-20T21:49:58;22.70;99.90
9375;DHT22;4727;51.202;6.344;2023-08-20T21:54:51;22.70;99.90
9375;DHT22;4727;51.202;6.344;2023-08-20T21:57:18;22.60;99.90
9375;DHT22;4727;51.202;6.344;2023-08-20T21:59:50;22.60;99.90
9375;DHT22;4727;51.202;6.344;2023-08-20T22:02:16;22.50;99.90
9375;DHT22;4727;51.202;6.344;2023-08-20T22:07:08;22.50;99.90
9375;DHT22;4727;51.202;6.344;2023-08-20T22:12:00;22.40;99.90
9375;DHT22;4727;51.202;6.344;2023-08-20T22:14:26;22.40;99.90
9375;DHT22;4727;51.202;6.344;2023-08-20T23:11:45;21.80;99.90
9375;DHT22;4727;51.202;6.344;2023-08-20T23:34:04;21.80;99.90
9375;DHT22;4727;51.202;6.344;2023-08-20T23:36:30;21.80;99.90
